Time;durP1;ratioP1;P1;durP2;ratioP2;P2;SDS_P1;SDS_P2;PMS_P1;PMS_P2;Temp;Humidity;BMP_temperature;BMP_pressure;BME280_temperature;BME280_humidity;BME280_pressure;Samples;Min_cycle;Max_cycle;Signal;HPM_P1;HPM_P2
2021/01/01 00:02:14;;;;;;;54.48;26.55;;;;;;;4.27;76.26;100664.20;1689022;85;21357;-53
2021/01/01 00:05:18;;;;;;;50.80;26.87;;;;;;;4.29;76.31;100656.81;1702812;83;21201;-53
2021/01/01 00:08:24;;;;;;;49.10;26.07;;;;;;;4.25;76.34;100643.66;1696059;82;21546;-53
2021/01/01 00:11:30;;;;;;;45.98;25.37;;;;;;;4.32;76.46;100638.94;1671462;84;21252;-54
2021/01/01 00:14:35;;;;;;;47.10;26.60;;;;;;;4.36;76.38;100625.48;1702247;82;21223;-53
2021/01/01 00:17:40;;;;;;;48.42;27.15;;;;;;;4.42;76.33;100622.23;1684588;83;21239;-54
2021/01/01 00:20:46;;;;;;;47.83;26.12;;;;;;;4.46;76.23;100625.55;1697069;83;21216;-53
2021/01/01 00:23:52;;;;;;;49.35;28.55;;;;;;;4.55;76.23;100631.56;1685657;85;21234;-53
2021/01/01 00:27:01;;;;;;;46.77;27.30;;;;;;;4.61;75.83;100632.38;1706031;83;21181;-53
2021/01/01 00:30:06;;;;;;;45.90;25.35;;;;;;;4.57;75.78;100629.06;1699838;83;21228;-53
2021/01/01 00:33:11;;;;;;;41.98;26.05;;;;;;;4.61;75.58;100615.59;1698978;84;21755;-53
2021/01/01 00:36:16;;;;;;;42.80;25.92;;;;;;;4.63;75.64;100623.59;1673361;85;21347;-53
2021/01/01 00:39:22;;;;;;;43.98;26.97;;;;;;;4.68;75.39;100623.23;1701372;82;21251;-54
2021/01/01 00:42:27;;;;;;;43.52;24.87;;;;;;;4.72;75.36;100623.31;1673512;84;21241;-53
2021/01/01 00:45:32;;;;;;;45.15;26.65;;;;;;;4.77;75.01;100625.13;1703176;83;21741;-54
2021/01/01 00:48:38;;;;;;;42.15;25.95;;;;;;;4.76;74.78;100620.20;1688482;83;21269;-53
2021/01/01 00:51:45;;;;;;;37.08;22.77;;;;;;;4.74;74.63;100614.03;1688399;85;21273;-53
2021/01/01 00:54:50;;;;;;;39.23;24.32;;;;;;;4.67;74.40;100615.58;1693945;84;21193;-53
2021/01/01 00:57:56;;;;;;;38.60;23.47;;;;;;;4.54;74.37;100614.42;1693099;84;21279;-53
2021/01/01 01:01:02;;;;;;;39.90;23.42;;;;;;;4.47;74.41;100600.19;1670389;85;21190;-53
2021/01/01 01:04:08;;;;;;;32.70;22.22;;;;;;;4.39;74.35;100611.66;1705334;83;21674;-54
2021/01/01 01:07:14;;;;;;;37.85;24.02;;;;;;;4.30;74.38;100596.20;1656256;85;21247;-54
2021/01/01 01:10:20;;;;;;;37.78;22.70;;;;;;;4.20;74.38;100604.73;1682617;82;22081;-53
2021/01/01 01:13:25;;;;;;;34.27;22.00;;;;;;;4.14;74.53;100607.97;1704347;82;21274;-54
2021/01/01 01:16:36;;;;;;;36.50;23.55;;;;;;;4.10;74.55;100611.07;1703902;83;21515;-53
2021/01/01 01:19:42;;;;;;;36.93;22.95;;;;;;;4.08;74.72;100599.02;1689185;83;21368;-53
2021/01/01 01:22:47;;;;;;;33.65;21.33;;;;;;;4.13;74.60;100606.75;1712174;83;21745;-53
2021/01/01 01:25:54;;;;;;;33.45;21.10;;;;;;;4.09;74.44;100603.42;1689044;84;21270;-53
2021/01/01 01:29:00;;;;;;;33.25;21.15;;;;;;;4.04;74.32;100599.41;1691922;84;21286;-53
2021/01/01 01:32:04;;;;;;;31.62;19.23;;;;;;;3.99;74.41;100602.50;1708696;83;21824;-53
2021/01/01 01:35:10;;;;;;;33.70;20.77;;;;;;;4.01;74.47;100616.75;1686670;83;21202;-53
2021/01/01 01:38:15;;;;;;;30.60;20.15;;;;;;;4.03;74.37;100609.37;1703953;82;21476;-53
2021/01/01 01:41:21;;;;;;;31.95;19.82;;;;;;;4.03;74.16;100606.66;1704100;83;21196;-52
2021/01/01 01:44:27;;;;;;;32.98;21.05;;;;;;;3.96;74.16;100617.66;1704764;83;21232;-53
2021/01/01 01:47:31;;;;;;;33.40;21.52;;;;;;;3.90;74.29;100607.83;1702606;82;21276;-53
2021/01/01 01:50:36;;;;;;;32.13;20.68;;;;;;;3.84;74.38;100596.13;1705729;83;21212;-53
2021/01/01 01:53:46;;;;;;;31.40;18.92;;;;;;;3.80;74.54;100607.73;1669488;84;21294;-53
2021/01/01 01:56:51;;;;;;;33.13;19.87;;;;;;;3.77;74.69;100599.87;1705996;84;21244;-53
2021/01/01 01:59:56;;;;;;;33.58;20.30;;;;;;;3.77;74.76;100590.88;1686280;85;21549;-53
2021/01/01 02:03:02;;;;;;;33.78;19.85;;;;;;;3.76;74.78;100592.72;1706181;82;21810;-53
2021/01/01 02:06:09;;;;;;;36.53;20.80;;;;;;;3.76;74.79;100585.11;1706360;82;21224;-53
2021/01/01 02:09:14;;;;;;;34.25;20.65;;;;;;;3.76;74.79;100586.47;1700420;83;21216;-53
2021/01/01 02:12:22;;;;;;;29.77;19.35;;;;;;;3.76;74.90;100589.17;1706893;81;21231;-53
2021/01/01 02:15:26;;;;;;;32.73;20.48;;;;;;;3.77;74.84;100585.47;1690116;85;21198;-53
2021/01/01 02:18:43;;;;;;;33.55;21.48;;;;;;;3.80;74.89;100585.20;1702961;84;21833;-53
2021/01/01 02:21:49;;;;;;;30.52;20.17;;;;;;;3.83;74.85;100590.36;1699501;84;21803;-53
2021/01/01 02:24:55;;;;;;;32.40;20.80;;;;;;;3.88;74.82;100594.42;1700687;83;21525;-53
2021/01/01 02:28:00;;;;;;;33.65;20.70;;;;;;;3.84;74.74;100594.30;1684889;84;21232;-53
2021/01/01 02:31:06;;;;;;;30.57;20.62;;;;;;;3.84;74.87;100586.17;1703982;84;21271;-53
2021/01/01 02:34:11;;;;;;;32.45;20.52;;;;;;;3.86;74.88;100588.27;1710152;84;21284;-53
2021/01/01 02:37:16;;;;;;;28.57;19.95;;;;;;;3.89;74.87;100575.82;1702331;84;21216;-54
2021/01/01 02:40:21;;;;;;;32.08;21.02;;;;;;;3.94;74.94;100584.42;1708543;84;21232;-53
2021/01/01 02:43:27;;;;;;;31.52;20.82;;;;;;;3.98;74.79;100579.09;1709127;84;21255;-53
2021/01/01 02:46:34;;;;;;;31.12;20.08;;;;;;;4.03;74.75;100563.80;1707017;84;21212;-52
2021/01/01 02:49:39;;;;;;;30.88;21.33;;;;;;;4.10;74.81;100563.19;1705945;84;21216;-52
2021/01/01 02:52:44;;;;;;;28.92;20.57;;;;;;;4.20;74.58;100563.26;1709850;82;21626;-53
2021/01/01 02:55:50;;;;;;;31.33;20.50;;;;;;;4.24;74.42;100556.57;1709442;84;21857;-53
2021/01/01 02:58:55;;;;;;;33.95;21.75;;;;;;;4.34;74.31;100559.70;1697520;84;21237;-53
2021/01/01 03:02:01;;;;;;;29.90;18.75;;;;;;;4.44;74.15;100555.22;1709057;84;21582;-54
2021/01/01 03:05:06;;;;;;;28.67;18.92;;;;;;;4.48;73.86;100549.91;1690866;84;21765;-53
2021/01/01 03:08:11;;;;;;;33.02;21.17;;;;;;;4.57;73.51;100550.45;1704228;84;21237;-54
2021/01/01 03:11:17;;;;;;;32.30;19.52;;;;;;;4.53;73.26;100548.98;1712134;80;21602;-54
2021/01/01 03:14:22;;;;;;;31.25;20.12;;;;;;;4.53;73.21;100535.44;1711040;84;21543;-53
2021/01/01 03:17:27;;;;;;;29.07;20.25;;;;;;;4.56;73.17;100537.03;1666776;85;21732;-53
2021/01/01 03:20:33;;;;;;;33.63;20.27;;;;;;;4.63;73.27;100552.27;1655208;85;21396;-54
2021/01/01 03:23:38;;;;;;;31.02;20.23;;;;;;;4.70;72.94;100558.86;1667694;85;21970;-54
2021/01/01 03:26:43;;;;;;;30.95;19.48;;;;;;;4.71;72.75;100551.11;1706749;83;21555;-53
2021/01/01 03:29:48;;;;;;;30.37;19.52;;;;;;;4.73;72.69;100539.60;1704255;83;21220;-54
2021/01/01 03:32:53;;;;;;;30.25;20.15;;;;;;;4.73;72.52;100550.45;1708880;82;21920;-53
2021/01/01 03:35:58;;;;;;;30.92;19.48;;;;;;;4.70;72.47;100556.15;1716096;83;21208;-53
2021/01/01 03:39:02;;;;;;;32.38;20.55;;;;;;;4.72;72.55;100552.33;1706392;82;21358;-54
2021/01/01 03:42:11;;;;;;;29.63;18.60;;;;;;;4.73;72.33;100548.61;1714210;83;21228;-54
2021/01/01 03:45:16;;;;;;;31.80;19.73;;;;;;;4.71;72.37;100549.75;1691964;83;21243;-53
2021/01/01 03:48:22;;;;;;;28.17;18.67;;;;;;;4.73;72.50;100543.67;1714998;83;21393;-54
2021/01/01 03:51:27;;;;;;;28.57;18.60;;;;;;;4.80;72.47;100547.58;1712691;83;21343;-54
2021/01/01 03:54:32;;;;;;;28.52;18.70;;;;;;;4.82;72.24;100536.94;1686643;83;21218;-53
2021/01/01 03:57:37;;;;;;;28.67;18.17;;;;;;;4.81;72.08;100541.14;1681809;84;21224;-52
2021/01/01 04:00:43;;;;;;;27.55;18.42;;;;;;;4.78;71.92;100550.42;1708519;83;21309;-53
2021/01/01 04:03:48;;;;;;;27.22;18.17;;;;;;;4.74;71.91;100550.83;1697339;83;21239;-53
2021/01/01 04:06:54;;;;;;;28.10;18.05;;;;;;;4.68;71.97;100544.60;1686919;85;21223;-53
2021/01/01 04:10:01;;;;;;;29.20;19.77;;;;;;;4.60;71.87;100537.11;1686960;85;21227;-53
2021/01/01 04:13:06;;;;;;;28.67;18.98;;;;;;;4.50;72.13;100537.06;1689939;82;21295;-53
2021/01/01 04:16:11;;;;;;;30.97;18.92;;;;;;;4.40;72.14;100533.45;1667389;85;21255;-52
2021/01/01 04:19:17;;;;;;;29.07;18.80;;;;;;;4.32;72.53;100548.16;1665555;85;21264;-52
2021/01/01 04:22:22;;;;;;;25.62;17.27;;;;;;;4.32;72.71;100539.16;1711820;82;21965;-53
2021/01/01 04:25:27;;;;;;;28.87;19.15;;;;;;;4.34;72.77;100549.37;1690625;84;21387;-54
2021/01/01 04:28:32;;;;;;;30.43;19.45;;;;;;;4.35;72.85;100549.73;1690465;83;21292;-54
2021/01/01 04:31:40;;;;;;;28.35;16.52;;;;;;;4.39;72.92;100553.39;1690512;84;21222;-53
2021/01/01 04:34:46;;;;;;;26.23;17.02;;;;;;;4.43;72.65;100553.52;1710900;83;21232;-53
2021/01/01 04:37:52;;;;;;;26.15;17.05;;;;;;;4.36;72.59;100548.24;1730040;81;21428;-53
2021/01/01 04:40:59;;;;;;;27.10;16.77;;;;;;;4.37;72.81;100555.41;1730111;83;21749;-53
2021/01/01 04:44:04;;;;;;;25.08;17.17;;;;;;;4.37;72.62;100548.63;1719810;82;21224;-53
2021/01/01 04:47:10;;;;;;;28.38;18.90;;;;;;;4.41;72.77;100549.19;1719545;82;21859;-52
2021/01/01 04:50:18;;;;;;;27.73;18.50;;;;;;;4.47;72.66;100526.48;1719561;83;21759;-53
2021/01/01 04:53:25;;;;;;;26.45;17.23;;;;;;;4.54;72.63;100530.39;1719652;81;21375;-52
2021/01/01 04:56:31;;;;;;;28.65;18.35;;;;;;;4.63;72.41;100530.58;1726824;83;21195;-52
2021/01/01 04:59:37;;;;;;;25.65;17.02;;;;;;;4.67;72.33;100526.59;1725043;82;21282;-52
2021/01/01 05:02:41;;;;;;;27.27;16.30;;;;;;;4.63;72.11;100533.64;1727411;81;21784;-53
2021/01/01 05:05:56;;;;;;;25.20;16.48;;;;;;;4.68;72.16;100531.05;1727773;83;21409;-53
2021/01/01 05:09:02;;;;;;;25.72;14.93;;;;;;;4.72;72.10;100525.70;1727585;81;21413;-53
2021/01/01 05:12:15;;;;;;;25.60;17.87;;;;;;;4.72;71.86;100518.44;1727797;83;21402;-53
2021/01/01 05:15:21;;;;;;;27.58;17.92;;;;;;;4.70;71.89;100519.55;1720545;82;21390;-53
2021/01/01 05:18:32;;;;;;;23.32;16.42;;;;;;;4.69;71.75;100521.91;1717839;82;21278;-53
2021/01/01 05:21:37;;;;;;;25.02;16.93;;;;;;;4.67;71.86;100511.69;1717982;83;21374;-54
2021/01/01 05:24:52;;;;;;;37.08;20.55;;;;;;;4.66;71.70;100516.75;1717838;82;21278;-54
2021/01/01 05:27:58;;;;;;;25.75;15.10;;;;;;;4.65;71.77;100519.12;1717882;82;21264;-54
2021/01/01 05:31:04;;;;;;;34.75;19.62;;;;;;;4.71;71.87;100510.44;1718431;83;21266;-55
2021/01/01 05:34:23;;;;;;;42.38;21.12;;;;;;;4.69;71.73;100511.92;1718056;82;21212;-53
2021/01/01 05:37:42;;;;;;;28.62;16.57;;;;;;;4.70;71.59;100513.63;1717798;82;21358;-52
2021/01/01 05:40:49;;;;;;;24.75;15.58;;;;;;;4.70;71.59;100505.98;1717817;83;21752;-52
2021/01/01 05:43:53;;;;;;;26.42;16.00;;;;;;;4.69;71.37;100500.22;1717726;82;21259;-53
2021/01/01 05:47:08;;;;;;;29.90;18.50;;;;;;;4.63;71.23;100496.70;1718536;83;21398;-54
2021/01/01 05:50:16;;;;;;;27.07;16.27;;;;;;;4.56;71.45;100497.24;1717779;83;21371;-55
2021/01/01 05:53:27;;;;;;;23.45;15.70;;;;;;;4.61;71.63;100490.89;1718036;82;21381;-55
2021/01/01 05:56:33;;;;;;;24.63;14.90;;;;;;;4.69;71.50;100479.39;1718911;83;21216;-55
2021/01/01 05:59:43;;;;;;;24.00;15.10;;;;;;;4.72;71.19;100468.27;1718880;82;21390;-51
2021/01/01 06:02:49;;;;;;;21.68;14.43;;;;;;;4.63;70.94;100470.94;1717681;82;21894;-54
2021/01/01 06:06:04;;;;;;;20.75;13.88;;;;;;;4.60;71.06;100458.01;1717779;83;21382;-54
2021/01/01 06:09:12;;;;;;;19.55;12.85;;;;;;;4.62;71.03;100452.45;1717968;82;21271;-53
2021/01/01 06:12:20;;;;;;;22.62;14.78;;;;;;;4.64;70.95;100435.56;1718121;83;21283;-53
2021/01/01 06:15:28;;;;;;;30.37;17.15;;;;;;;4.59;70.83;100434.63;1717494;82;21263;-52
2021/01/01 06:18:40;;;;;;;29.82;17.00;;;;;;;4.50;70.55;100426.45;1715008;82;21291;-52
2021/01/01 06:21:50;;;;;;;27.17;16.45;;;;;;;4.31;70.77;100435.33;1714926;83;21359;-52
2021/01/01 06:24:58;;;;;;;24.05;14.55;;;;;;;4.24;71.20;100423.33;1712508;83;21263;-52
2021/01/01 06:28:03;;;;;;;21.57;14.30;;;;;;;4.30;71.42;100433.63;1712725;82;21749;-53
2021/01/01 06:31:08;;;;;;;23.27;14.10;;;;;;;4.41;71.29;100440.80;1714776;83;21224;-53
2021/01/01 06:34:28;;;;;;;21.70;14.43;;;;;;;4.48;71.22;100430.66;1714308;82;21244;-53
2021/01/01 06:37:49;;;;;;;25.88;15.60;;;;;;;4.53;71.04;100430.23;1713136;82;21208;-52
2021/01/01 06:40:53;;;;;;;22.30;13.15;;;;;;;4.60;70.99;100431.39;1714431;83;21220;-53
2021/01/01 06:44:02;;;;;;;26.27;14.95;;;;;;;4.71;70.74;100450.78;1714388;82;21217;-52
2021/01/01 06:47:07;;;;;;;28.38;16.80;;;;;;;4.79;70.57;100494.34;1713300;83;21247;-53
2021/01/01 06:50:36;;;;;;;26.33;16.27;;;;;;;4.86;70.39;100511.77;1714384;83;21575;-53
2021/01/01 06:53:42;;;;;;;25.17;13.20;;;;;;;4.94;70.34;100525.51;1714871;82;21251;-53
2021/01/01 06:56:51;;;;;;;23.62;13.85;;;;;;;4.98;69.82;100472.20;1714677;83;21780;-54
2021/01/01 06:59:57;;;;;;;20.48;13.15;;;;;;;4.92;69.51;100498.53;1713986;83;21552;-53
2021/01/01 07:03:03;;;;;;;20.65;13.32;;;;;;;4.76;69.57;100510.89;1714945;82;21294;-52
2021/01/01 07:06:14;;;;;;;26.42;14.60;;;;;;;4.63;69.91;100497.05;1714949;83;21325;-53
2021/01/01 07:09:20;;;;;;;19.17;11.85;;;;;;;4.63;70.37;100501.59;1714776;82;21284;-53
2021/01/01 07:12:25;;;;;;;28.10;17.55;;;;;;;4.73;70.55;100486.25;1714951;82;21216;-53
2021/01/01 07:15:40;;;;;;;33.58;20.80;;;;;;;4.80;70.37;100487.43;1712809;83;21259;-53
2021/01/01 07:18:45;;;;;;;20.90;13.40;;;;;;;4.83;70.27;100489.86;1692623;85;21380;-52
2021/01/01 07:21:51;;;;;;;22.00;13.22;;;;;;;4.92;70.35;100510.73;1692640;84;21447;-53
2021/01/01 07:24:56;;;;;;;23.18;14.43;;;;;;;5.10;70.26;100500.09;1692565;85;21305;-53
2021/01/01 07:28:02;;;;;;;22.02;14.03;;;;;;;5.23;69.83;100504.25;1692817;85;21400;-53
2021/01/01 07:31:08;;;;;;;19.42;12.82;;;;;;;5.33;69.67;100505.63;1692778;85;21414;-53
2021/01/01 07:34:17;;;;;;;19.65;12.45;;;;;;;5.44;69.34;100525.37;1692811;85;21297;-54
2021/01/01 07:37:23;;;;;;;22.00;12.73;;;;;;;5.48;68.79;100514.61;1692884;85;21440;-54
2021/01/01 07:40:29;;;;;;;24.12;14.05;;;;;;;5.46;68.74;100519.81;1692685;85;21368;-52
2021/01/01 07:43:36;;;;;;;28.05;14.53;;;;;;;5.42;68.47;100519.22;1692649;85;21284;-53
2021/01/01 07:46:42;;;;;;;33.58;20.92;;;;;;;5.38;68.48;100515.09;1692711;85;21375;-52
2021/01/01 07:49:49;;;;;;;27.30;17.67;;;;;;;5.38;68.63;100506.94;1692704;85;21328;-52
2021/01/01 07:52:54;;;;;;;29.45;16.57;;;;;;;5.45;68.62;100513.55;1692688;85;21794;-53
2021/01/01 07:56:02;;;;;;;28.55;16.10;;;;;;;5.50;68.48;100518.02;1692866;85;21222;-54
2021/01/01 07:59:07;;;;;;;22.52;13.90;;;;;;;5.51;68.09;100512.10;1661516;86;21237;-53
2021/01/01 08:02:13;;;;;;;22.20;13.40;;;;;;;5.54;67.96;100509.11;1688254;84;21177;-53
2021/01/01 08:05:20;;;;;;;21.17;13.20;;;;;;;5.60;67.99;100509.41;1663757;86;21232;-54
2021/01/01 08:08:31;;;;;;;19.37;12.95;;;;;;;5.73;67.80;100507.28;1642233;86;21769;-53
2021/01/01 08:11:36;;;;;;;18.25;12.58;;;;;;;5.69;67.05;100524.00;1626911;88;21244;-54
2021/01/01 08:14:42;;;;;;;19.25;12.33;;;;;;;5.61;67.47;100538.78;1658503;86;21249;-53
2021/01/01 08:17:48;;;;;;;18.25;11.65;;;;;;;5.69;67.43;100532.16;1695204;82;21208;-53
2021/01/01 08:20:57;;;;;;;19.65;11.80;;;;;;;5.77;67.38;100518.72;1717785;83;21722;-53
2021/01/01 08:24:14;;;;;;;19.60;12.55;;;;;;;5.80;67.26;100519.80;1717379;83;21354;-53
2021/01/01 08:27:19;;;;;;;19.32;12.45;;;;;;;5.80;67.17;100519.27;1717737;83;21215;-53
2021/01/01 08:30:27;;;;;;;20.80;13.65;;;;;;;5.84;67.11;100519.88;1717364;83;21346;-52
2021/01/01 08:33:35;;;;;;;19.25;12.45;;;;;;;5.83;67.09;100515.47;1717478;83;21359;-52
2021/01/01 08:36:41;;;;;;;18.67;12.45;;;;;;;5.85;67.27;100522.45;1717494;83;21358;-52
2021/01/01 08:39:46;;;;;;;17.25;11.33;;;;;;;5.94;67.24;100528.91;1717688;83;21211;-53
2021/01/01 08:42:51;;;;;;;18.05;12.05;;;;;;;6.08;67.20;100535.27;1717767;83;21417;-52
2021/01/01 08:45:57;;;;;;;18.12;11.48;;;;;;;6.22;66.96;100536.67;1722945;83;21390;-53
2021/01/01 08:49:04;;;;;;;22.73;13.22;;;;;;;6.30;66.64;100526.80;1723065;83;21358;-52
2021/01/01 08:52:20;;;;;;;18.85;11.93;;;;;;;6.28;66.36;100521.17;1723159;83;21868;-52
2021/01/01 08:55:26;;;;;;;19.77;12.43;;;;;;;6.24;66.55;100527.39;1723066;83;21785;-53
2021/01/01 08:58:34;;;;;;;19.70;13.35;;;;;;;6.20;66.36;100520.51;1723115;83;21369;-52
2021/01/01 09:01:40;;;;;;;20.70;12.20;;;;;;;6.08;66.47;100511.67;1722109;83;21346;-52
2021/01/01 09:04:45;;;;;;;19.25;12.33;;;;;;;6.02;66.96;100508.67;1722859;83;21362;-53
2021/01/01 09:07:50;;;;;;;21.75;13.30;;;;;;;6.05;67.06;100507.89;1722730;83;21677;-53
2021/01/01 09:10:55;;;;;;;19.05;13.13;;;;;;;5.97;67.05;100502.31;1722560;83;21729;-53
2021/01/01 09:14:11;;;;;;;19.05;12.43;;;;;;;5.91;67.35;100508.30;1722253;83;21357;-53
2021/01/01 09:17:18;;;;;;;21.45;13.43;;;;;;;5.88;67.56;100517.26;1723053;83;21227;-53
2021/01/01 09:20:24;;;;;;;20.50;12.88;;;;;;;5.80;67.70;100515.72;1713902;82;21224;-52
2021/01/01 09:23:34;;;;;;;18.55;12.28;;;;;;;5.69;68.01;100515.86;1701495;83;21753;-53
2021/01/01 09:26:40;;;;;;;20.15;13.05;;;;;;;5.61;68.42;100510.27;1717073;83;21414;-53
2021/01/01 09:29:45;;;;;;;19.80;13.15;;;;;;;5.56;68.91;100508.48;1717209;83;21789;-53
2021/01/01 09:32:53;;;;;;;22.42;13.30;;;;;;;5.62;69.24;100507.91;1717217;83;21367;-53
2021/01/01 09:36:00;;;;;;;22.87;13.58;;;;;;;5.66;69.46;100501.20;1717107;83;21915;-53
2021/01/01 09:39:06;;;;;;;23.40;14.85;;;;;;;5.64;69.62;100497.28;1717204;83;21280;-52
2021/01/01 09:42:13;;;;;;;20.20;13.62;;;;;;;5.57;69.79;100514.25;1716706;83;21722;-53
2021/01/01 09:45:20;;;;;;;23.92;14.15;;;;;;;5.49;70.17;100500.52;1716973;83;21402;-53
2021/01/01 09:48:25;;;;;;;21.42;13.05;;;;;;;5.49;70.46;100510.02;1716032;83;21229;-53
2021/01/01 09:51:30;;;;;;;23.02;13.85;;;;;;;5.46;70.64;100504.39;1716638;83;21752;-53
2021/01/01 09:54:35;;;;;;;19.77;13.40;;;;;;;5.48;70.79;100499.69;1717098;83;21382;-53
2021/01/01 09:57:41;;;;;;;22.80;14.15;;;;;;;5.49;70.95;100508.17;1717223;83;21463;-53
2021/01/01 10:00:47;;;;;;;21.65;13.93;;;;;;;5.49;71.07;100514.96;1712493;84;21220;-53
2021/01/01 10:03:52;;;;;;;19.42;13.25;;;;;;;5.47;71.23;100511.52;1717156;83;21395;-52
2021/01/01 10:06:58;;;;;;;24.55;13.65;;;;;;;5.44;71.46;100500.95;1716296;83;21414;-52
2021/01/01 10:10:03;;;;;;;22.62;14.43;;;;;;;5.42;71.82;100495.31;1716291;83;21354;-53
2021/01/01 10:13:08;;;;;;;21.60;14.28;;;;;;;5.45;72.00;100479.61;1716352;83;21406;-53
2021/01/01 10:16:17;;;;;;;23.62;14.55;;;;;;;5.46;72.23;100485.88;1716417;83;21568;-52
2021/01/01 10:19:23;;;;;;;20.65;14.43;;;;;;;5.45;72.24;100461.09;1687326;83;21194;-52
2021/01/01 10:22:28;;;;;;;24.20;14.58;;;;;;;5.46;72.63;100472.30;1682028;85;21884;-52
2021/01/01 10:25:35;;;;;;;22.13;14.13;;;;;;;5.53;72.80;100454.45;1712142;83;21217;-53
2021/01/01 10:28:41;;;;;;;21.48;14.15;;;;;;;5.61;72.83;100449.17;1681075;85;21227;-53
2021/01/01 10:31:46;;;;;;;22.52;15.45;;;;;;;5.67;72.78;100478.47;1711420;83;21204;-53
2021/01/01 10:34:51;;;;;;;24.72;15.43;;;;;;;5.69;72.71;100495.48;1681740;85;21277;-53
2021/01/01 10:37:59;;;;;;;25.52;16.25;;;;;;;5.69;72.60;100450.68;1711947;83;21282;-53
2021/01/01 10:41:06;;;;;;;26.93;15.55;;;;;;;5.65;72.76;100450.10;1682072;85;21383;-53
2021/01/01 10:44:14;;;;;;;29.02;16.90;;;;;;;5.66;72.95;100431.96;1683643;84;21228;-52
2021/01/01 10:47:19;;;;;;;24.02;16.10;;;;;;;5.69;73.06;100397.72;1682964;85;21812;-52
2021/01/01 10:50:24;;;;;;;25.52;16.48;;;;;;;5.74;73.05;100381.34;1682913;85;21776;-51
2021/01/01 10:53:28;;;;;;;25.50;15.43;;;;;;;5.77;73.16;100353.05;1682898;84;21421;-51
2021/01/01 10:56:35;;;;;;;27.65;16.62;;;;;;;5.85;73.06;100396.67;1683201;85;21374;-52
2021/01/01 10:59:42;;;;;;;23.67;15.85;;;;;;;5.92;73.06;100385.06;1681982;84;21243;-53
2021/01/01 11:02:47;;;;;;;27.65;16.80;;;;;;;6.00;72.77;100400.63;1683548;84;21389;-53
2021/01/01 11:05:52;;;;;;;24.23;15.15;;;;;;;5.98;72.74;100372.73;1683747;85;21308;-53
2021/01/01 11:08:58;;;;;;;27.58;17.25;;;;;;;6.00;72.69;100376.17;1683846;84;21441;-54
2021/01/01 11:12:06;;;;;;;30.08;18.15;;;;;;;5.94;72.67;100371.33;1683795;85;21438;-53
2021/01/01 12:19:39;;;;;;;29.37;18.12;;;;;;;5.96;72.83;100387.00;1683936;85;21363;-53
2021/01/01 12:22:29;;;;;;;32.48;20.50;;;;;;;5.46;73.99;100481.31;1673567;81;21215;-52
2021/01/01 12:25:29;;;;;;;33.42;20.05;;;;;;;5.43;74.19;100478.02;1712070;84;21201;-52
2021/01/01 12:28:33;;;;;;;31.80;20.32;;;;;;;5.42;74.23;100481.73;1712402;83;21762;-52
2021/01/01 12:31:39;;;;;;;33.53;20.88;;;;;;;5.40;74.33;100481.88;1711127;83;21204;-52
2021/01/01 12:34:43;;;;;;;33.18;20.43;;;;;;;5.42;74.36;100463.58;1713051;83;21267;-52
2021/01/01 12:37:48;;;;;;;31.00;19.15;;;;;;;5.40;74.37;100464.23;1714202;83;21283;-52
2021/01/01 12:40:55;;;;;;;35.83;21.17;;;;;;;5.38;74.51;100457.22;1714135;83;21255;-52
2021/01/01 12:44:01;;;;;;;36.28;21.12;;;;;;;5.34;74.66;100462.09;1714288;83;21240;-52
2021/01/01 12:47:07;;;;;;;36.60;22.10;;;;;;;5.27;74.79;100455.98;1714943;83;21243;-53
2021/01/01 12:50:15;;;;;;;35.98;22.35;;;;;;;5.24;74.98;100450.36;1713233;83;21247;-53
2021/01/01 12:53:20;;;;;;;41.73;23.75;;;;;;;5.23;75.17;100465.42;1686089;83;21271;-52
2021/01/01 12:56:26;;;;;;;40.90;23.10;;;;;;;5.18;75.37;100465.84;1684817;83;22159;-54
2021/01/01 12:59:32;;;;;;;44.53;24.50;;;;;;;5.18;75.47;100464.98;1674028;85;21605;-52
2021/01/01 13:02:38;;;;;;;48.78;24.67;;;;;;;5.15;75.60;100469.33;1622619;88;21252;-52
2021/01/01 13:05:44;;;;;;;42.15;23.73;;;;;;;5.12;75.71;100469.09;1674138;85;21284;-52
2021/01/01 13:08:51;;;;;;;38.50;23.18;;;;;;;5.06;75.87;100479.16;1627789;86;21232;-52
2021/01/01 13:11:58;;;;;;;46.20;25.62;;;;;;;5.06;76.11;100471.02;1711886;83;21814;-52
2021/01/01 13:15:03;;;;;;;44.20;25.00;;;;;;;5.10;76.31;100461.61;1712549;84;21350;-53
2021/01/01 13:18:09;;;;;;;36.75;22.45;;;;;;;5.19;76.28;100468.04;1712469;84;21213;-53
2021/01/01 13:21:15;;;;;;;39.60;22.58;;;;;;;5.24;76.16;100458.50;1712931;84;21217;-53
2021/01/01 13:24:21;;;;;;;36.53;21.68;;;;;;;5.25;76.10;100447.16;1714217;81;21379;-54
2021/01/01 13:27:27;;;;;;;40.12;23.20;;;;;;;5.27;76.07;100452.78;1713218;84;21750;-53
2021/01/01 13:30:32;;;;;;;41.15;22.07;;;;;;;5.27;76.06;100450.07;1712923;84;21232;-54
2021/01/01 13:33:37;;;;;;;39.98;22.02;;;;;;;5.26;75.92;100451.08;1712999;84;21248;-53
2021/01/01 13:36:42;;;;;;;38.73;23.80;;;;;;;5.23;75.97;100451.86;1713037;84;21204;-53
2021/01/01 13:39:48;;;;;;;40.65;21.95;;;;;;;5.24;76.18;100448.13;1712516;83;21904;-53
2021/01/01 13:42:57;;;;;;;38.70;22.85;;;;;;;5.29;76.16;100460.30;1713131;82;21828;-52
2021/01/01 13:46:02;;;;;;;34.33;21.25;;;;;;;5.36;75.99;100458.72;1713682;83;21263;-53
2021/01/01 13:49:09;;;;;;;39.13;22.65;;;;;;;5.36;75.99;100457.87;1705246;84;21240;-53
2021/01/01 13:52:14;;;;;;;38.63;22.25;;;;;;;5.39;75.96;100453.52;1690363;85;21324;-53
2021/01/01 13:55:21;;;;;;;35.98;22.45;;;;;;;5.43;75.87;100446.80;1709949;83;21204;-53
2021/01/01 13:58:26;;;;;;;37.85;22.85;;;;;;;5.44;75.68;100441.75;1712122;84;21232;-52
2021/01/01 14:01:32;;;;;;;31.90;19.87;;;;;;;5.44;75.61;100434.44;1713636;83;21260;-52
2021/01/01 14:04:37;;;;;;;35.20;21.23;;;;;;;5.45;75.56;100449.75;1704897;83;21300;-53
2021/01/01 14:07:44;;;;;;;39.10;23.22;;;;;;;5.47;75.57;100455.03;1712130;83;21221;-53
2021/01/01 14:10:51;;;;;;;39.60;22.85;;;;;;;5.48;75.40;100463.52;1690166;85;21345;-52
2021/01/01 14:13:55;;;;;;;34.25;19.98;;;;;;;5.42;75.28;100473.59;1710333;83;21236;-52
2021/01/01 14:17:01;;;;;;;33.98;20.45;;;;;;;5.34;75.43;100470.73;1710700;83;21216;-52
2021/01/01 14:20:06;;;;;;;36.10;20.72;;;;;;;5.30;75.52;100470.63;1690964;85;21181;-52
2021/01/01 14:23:12;;;;;;;35.80;21.12;;;;;;;5.22;75.53;100467.76;1711362;82;21244;-52
2021/01/01 14:26:20;;;;;;;34.40;21.55;;;;;;;5.24;75.79;100471.20;1681231;84;21201;-52
2021/01/01 14:29:25;;;;;;;34.10;20.20;;;;;;;5.31;75.80;100479.98;1693796;83;21251;-52
2021/01/01 14:32:32;;;;;;;33.33;20.30;;;;;;;5.30;75.81;100485.55;1716566;82;21736;-52
2021/01/01 14:35:37;;;;;;;36.40;20.65;;;;;;;5.32;75.82;100482.21;1716500;83;21355;-52
2021/01/01 14:38:42;;;;;;;30.97;19.23;;;;;;;5.33;75.87;100486.62;1684369;83;21738;-53
2021/01/01 14:41:47;;;;;;;38.75;21.82;;;;;;;5.33;75.75;100484.78;1694445;84;21227;-53
2021/01/01 14:44:53;;;;;;;33.85;21.10;;;;;;;5.28;75.75;100502.50;1719065;83;21355;-52
2021/01/01 14:47:57;;;;;;;34.40;20.72;;;;;;;5.35;75.92;100511.78;1684393;83;21351;-52
2021/01/01 14:51:03;;;;;;;35.68;21.42;;;;;;;5.42;75.66;100507.00;1694485;84;21651;-52
2021/01/01 14:54:09;;;;;;;33.85;20.52;;;;;;;5.37;75.46;100506.59;1719945;82;21370;-52
2021/01/01 14:57:15;;;;;;;33.73;20.80;;;;;;;5.38;75.55;100504.23;1684729;85;21198;-52
2021/01/01 15:00:20;;;;;;;39.92;21.65;;;;;;;5.40;75.51;100500.02;1694186;84;21522;-53
2021/01/01 15:03:26;;;;;;;39.60;21.35;;;;;;;5.38;75.46;100496.58;1718850;82;21421;-53
2021/01/01 15:06:34;;;;;;;39.00;22.55;;;;;;;5.39;75.62;100483.38;1718931;83;21319;-52
2021/01/01 15:09:39;;;;;;;40.20;22.67;;;;;;;5.43;75.66;100470.74;1684652;84;21324;-53
2021/01/01 15:12:45;;;;;;;44.77;25.05;;;;;;;5.48;75.53;100474.38;1694525;83;21251;-52
2021/01/01 15:15:51;;;;;;;39.75;22.60;;;;;;;5.49;75.49;100477.45;1707425;83;21351;-52
2021/01/01 15:18:57;;;;;;;38.13;22.65;;;;;;;5.56;75.50;100498.97;1703501;83;21212;-52
2021/01/01 15:22:03;;;;;;;48.15;25.80;;;;;;;5.61;75.40;100492.09;1714242;83;21220;-53